sensor_id;sensor_type;location;lat;lon;timestamp;P1;durP1;ratioP1;P2;durP2;ratioP2
8982;SDS011;20979;59.850;10.660;2022-10-22T00:02:20;3.20;;;1.97;;
8982;SDS011;20979;59.850;10.660;2022-10-22T00:04:48;2.87;;;1.80;;
8982;SDS011;20979;59.850;10.660;2022-10-22T00:07:15;2.10;;;1.90;;
8982;SDS011;20979;59.850;10.660;2022-10-22T00:09:43;2.10;;;1.90;;
8982;SDS011;20979;59.850;10.660;2022-10-22T00:12:11;2.00;;;1.90;;
8982;SDS011;20979;59.850;10.660;2022-10-22T00:14:39;4.03;;;1.93;;
8982;SDS011;20979;59.850;10.660;2022-10-22T00:17:06;2.00;;;1.60;;
8982;SDS011;20979;59.850;10.660;2022-10-22T00:19:33;1.90;;;1.80;;
8982;SDS011;20979;59.850;10.660;2022-10-22T00:22:01;1.80;;;1.70;;
8982;SDS011;20979;59.850;10.660;2022-10-22T00:24:29;2.00;;;1.80;;
8982;SDS011;20979;59.850;10.660;2022-10-22T00:26:57;2.97;;;2.30;;
8982;SDS011;20979;59.850;10.660;2022-10-22T00:29:25;3.23;;;1.97;;
8982;SDS011;20979;59.850;10.660;2022-10-22T00:31:52;2.10;;;2.00;;
8982;SDS011;20979;59.850;10.660;2022-10-22T00:34:20;2.20;;;1.87;;
8982;SDS011;20979;59.850;10.660;2022-10-22T00:36:48;2.43;;;2.03;;
8982;SDS011;20979;59.850;10.660;2022-10-22T00:39:16;2.60;;;2.40;;
8982;SDS011;20979;59.850;10.660;2022-10-22T00:41:44;3.27;;;2.10;;
8982;SDS011;20979;59.850;10.660;2022-10-22T00:46:55;2.53;;;2.00;;
8982;SDS011;20979;59.850;10.660;2022-10-22T00:49:22;2.10;;;1.90;;
8982;SDS011;20979;59.850;10.660;2022-10-22T00:51:49;2.37;;;1.97;;
8982;SDS011;20979;59.850;10.660;2022-10-22T00:54:17;3.17;;;2.07;;
8982;SDS011;20979;59.850;10.660;2022-10-22T00:56:44;2.70;;;2.00;;
8982;SDS011;20979;59.850;10.660;2022-10-22T00:59:13;1.83;;;1.73;;
8982;SDS011;20979;59.850;10.660;2022-10-22T01:01:42;2.13;;;1.67;;
8982;SDS011;20979;59.850;10.660;2022-10-22T01:04:12;2.23;;;1.63;;
8982;SDS011;20979;59.850;10.660;2022-10-22T01:06:39;1.60;;;1.50;;
8982;SDS011;20979;59.850;10.660;2022-10-22T01:09:10;1.50;;;1.40;;
8982;SDS011;20979;59.850;10.660;2022-10-22T01:11:43;1.70;;;1.60;;
8982;SDS011;20979;59.850;10.660;2022-10-22T01:14:16;3.33;;;1.77;;
8982;SDS011;20979;59.850;10.660;2022-10-22T01:16:46;1.40;;;1.33;;
8982;SDS011;20979;59.850;10.660;2022-10-22T01:19:30;1.70;;;1.60;;
8982;SDS011;20979;59.850;10.660;2022-10-22T01:22:04;1.70;;;1.60;;
8982;SDS011;20979;59.850;10.660;2022-10-22T01:24:37;2.17;;;1.60;;
8982;SDS011;20979;59.850;10.660;2022-10-22T01:27:14;1.87;;;1.37;;
8982;SDS011;20979;59.850;10.660;2022-10-22T01:29:47;1.40;;;1.30;;
8982;SDS011;20979;59.850;10.660;2022-10-22T01:32:17;1.57;;;1.40;;
8982;SDS011;20979;59.850;10.660;2022-10-22T01:34:46;1.83;;;1.73;;
8982;SDS011;20979;59.850;10.660;2022-10-22T01:37:15;1.57;;;1.47;;
8982;SDS011;20979;59.850;10.660;2022-10-22T01:39:44;1.57;;;1.47;;
8982;SDS011;20979;59.850;10.660;2022-10-22T01:42:12;1.87;;;1.57;;
8982;SDS011;20979;59.850;10.660;2022-10-22T01:44:40;1.70;;;1.60;;
8982;SDS011;20979;59.850;10.660;2022-10-22T01:47:13;1.43;;;1.33;;
8982;SDS011;20979;59.850;10.660;2022-10-22T01:49:55;1.47;;;1.37;;
8982;SDS011;20979;59.850;10.660;2022-10-22T01:52:34;1.50;;;1.40;;
8982;SDS011;20979;59.850;10.660;2022-10-22T01:55:07;2.20;;;1.80;;
8982;SDS011;20979;59.850;10.660;2022-10-22T01:57:40;2.00;;;1.70;;
8982;SDS011;20979;59.850;10.660;2022-10-22T02:00:10;2.17;;;1.57;;
8982;SDS011;20979;59.850;10.660;2022-10-22T02:02:40;1.83;;;1.73;;
8982;SDS011;20979;59.850;10.660;2022-10-22T02:05:11;1.97;;;1.67;;
8982;SDS011;20979;59.850;10.660;2022-10-22T02:07:42;2.07;;;1.70;;
8982;SDS011;20979;59.850;10.660;2022-10-22T02:10:10;1.50;;;1.40;;
8982;SDS011;20979;59.850;10.660;2022-10-22T02:12:38;2.77;;;1.90;;
8982;SDS011;20979;59.850;10.660;2022-10-22T02:15:07;1.60;;;1.50;;
8982;SDS011;20979;59.850;10.660;2022-10-22T02:17:36;3.67;;;1.87;;
8982;SDS011;20979;59.850;10.660;2022-10-22T02:20:06;2.70;;;1.60;;
8982;SDS011;20979;59.850;10.660;2022-10-22T02:22:36;2.43;;;1.40;;
8982;SDS011;20979;59.850;10.660;2022-10-22T02:25:04;2.00;;;1.60;;
8982;SDS011;20979;59.850;10.660;2022-10-22T02:27:33;2.00;;;1.80;;
8982;SDS011;20979;59.850;10.660;2022-10-22T02:30:03;2.17;;;1.70;;
8982;SDS011;20979;59.850;10.660;2022-10-22T02:32:31;1.67;;;1.57;;
8982;SDS011;20979;59.850;10.660;2022-10-22T02:35:00;2.47;;;1.73;;
8982;SDS011;20979;59.850;10.660;2022-10-22T02:37:29;1.97;;;1.80;;
8982;SDS011;20979;59.850;10.660;2022-10-22T02:39:57;1.83;;;1.73;;
8982;SDS011;20979;59.850;10.660;2022-10-22T02:42:24;3.00;;;2.37;;
8982;SDS011;20979;59.850;10.660;2022-10-22T02:44:52;2.37;;;2.17;;
8982;SDS011;20979;59.850;10.660;2022-10-22T02:47:19;3.30;;;2.30;;
8982;SDS011;20979;59.850;10.660;2022-10-22T02:49:46;2.57;;;2.13;;
8982;SDS011;20979;59.850;10.660;2022-10-22T02:52:13;1.97;;;1.87;;
8982;SDS011;20979;59.850;10.660;2022-10-22T02:54:42;2.90;;;1.93;;
8982;SDS011;20979;59.850;10.660;2022-10-22T02:57:09;2.17;;;1.97;;
8982;SDS011;20979;59.850;10.660;2022-10-22T02:59:37;2.00;;;1.90;;
8982;SDS011;20979;59.850;10.660;2022-10-22T03:02:05;1.90;;;1.80;;
8982;SDS011;20979;59.850;10.660;2022-10-22T03:04:32;2.83;;;2.07;;
8982;SDS011;20979;59.850;10.660;2022-10-22T03:06:59;1.97;;;1.87;;
8982;SDS011;20979;59.850;10.660;2022-10-22T03:09:26;2.30;;;2.10;;
8982;SDS011;20979;59.850;10.660;2022-10-22T03:11:55;2.70;;;1.80;;
8982;SDS011;20979;59.850;10.660;2022-10-22T03:14:22;3.20;;;1.97;;
8982;SDS011;20979;59.850;10.660;2022-10-22T03:16:50;2.30;;;2.10;;
8982;SDS011;20979;59.850;10.660;2022-10-22T03:19:17;2.10;;;2.00;;
8982;SDS011;20979;59.850;10.660;2022-10-22T03:21:45;2.10;;;1.90;;
8982;SDS011;20979;59.850;10.660;2022-10-22T03:24:15;2.33;;;2.03;;
8982;SDS011;20979;59.850;10.660;2022-10-22T03:26:43;2.67;;;2.13;;
8982;SDS011;20979;59.850;10.660;2022-10-22T03:29:12;2.33;;;1.73;;
8982;SDS011;20979;59.850;10.660;2022-10-22T03:31:40;3.83;;;1.80;;
8982;SDS011;20979;59.850;10.660;2022-10-22T03:34:08;2.47;;;1.73;;
8982;SDS011;20979;59.850;10.660;2022-10-22T03:36:36;2.23;;;2.03;;
8982;SDS011;20979;59.850;10.660;2022-10-22T03:39:03;2.23;;;2.03;;
8982;SDS011;20979;59.850;10.660;2022-10-22T03:41:30;2.90;;;2.23;;
8982;SDS011;20979;59.850;10.660;2022-10-22T03:43:58;2.20;;;2.00;;
8982;SDS011;20979;59.850;10.660;2022-10-22T03:46:27;2.07;;;1.97;;
8982;SDS011;20979;59.850;10.660;2022-10-22T03:48:54;3.10;;;2.43;;
8982;SDS011;20979;59.850;10.660;2022-10-22T03:51:21;3.07;;;2.20;;
8982;SDS011;20979;59.850;10.660;2022-10-22T03:53:49;2.53;;;2.17;;
8982;SDS011;20979;59.850;10.660;2022-10-22T03:56:16;4.17;;;2.20;;
8982;SDS011;20979;59.850;10.660;2022-10-22T03:58:43;3.07;;;1.90;;
8982;SDS011;20979;59.850;10.660;2022-10-22T04:01:11;2.23;;;1.97;;
8982;SDS011;20979;59.850;10.660;2022-10-22T04:03:40;2.40;;;2.13;;
8982;SDS011;20979;59.850;10.660;2022-10-22T04:06:07;2.53;;;2.20;;
8982;SDS011;20979;59.850;10.660;2022-10-22T04:08:35;2.27;;;2.07;;
8982;SDS011;20979;59.850;10.660;2022-10-22T04:11:02;3.40;;;2.03;;
8982;SDS011;20979;59.850;10.660;2022-10-22T04:13:29;3.20;;;2.30;;
8982;SDS011;20979;59.850;10.660;2022-10-22T04:16:05;2.77;;;2.30;;
8982;SDS011;20979;59.850;10.660;2022-10-22T04:18:32;2.20;;;2.00;;
8982;SDS011;20979;59.850;10.660;2022-10-22T04:21:01;4.00;;;2.43;;
8982;SDS011;20979;59.850;10.660;2022-10-22T04:23:28;2.20;;;2.00;;
8982;SDS011;20979;59.850;10.660;2022-10-22T04:25:56;2.60;;;2.00;;
8982;SDS011;20979;59.850;10.660;2022-10-22T04:28:24;10.50;;;9.50;;
8982;SDS011;20979;59.850;10.660;2022-10-22T04:30:51;4.40;;;4.10;;
8982;SDS011;20979;59.850;10.660;2022-10-22T04:33:18;2.60;;;2.33;;
8982;SDS011;20979;59.850;10.660;2022-10-22T04:35:46;3.10;;;2.20;;
8982;SDS011;20979;59.850;10.660;2022-10-22T04:38:14;2.27;;;2.07;;
8982;SDS011;20979;59.850;10.660;2022-10-22T04:40:42;2.03;;;1.90;;
8982;SDS011;20979;59.850;10.660;2022-10-22T04:43:09;2.23;;;2.07;;
8982;SDS011;20979;59.850;10.660;2022-10-22T04:45:36;3.40;;;2.30;;
8982;SDS011;20979;59.850;10.660;2022-10-22T04:48:03;3.30;;;2.07;;
8982;SDS011;20979;59.850;10.660;2022-10-22T04:50:31;1.97;;;1.70;;
8982;SDS011;20979;59.850;10.660;2022-10-22T04:52:58;2.90;;;1.83;;
8982;SDS011;20979;59.850;10.660;2022-10-22T04:55:27;2.00;;;1.80;;
8982;SDS011;20979;59.850;10.660;2022-10-22T04:57:54;2.53;;;2.10;;
8982;SDS011;20979;59.850;10.660;2022-10-22T05:00:21;2.20;;;2.00;;
8982;SDS011;20979;59.850;10.660;2022-10-22T05:02:48;2.07;;;1.87;;
8982;SDS011;20979;59.850;10.660;2022-10-22T05:05:16;2.47;;;2.27;;
8982;SDS011;20979;59.850;10.660;2022-10-22T05:07:43;2.43;;;2.23;;
8982;SDS011;20979;59.850;10.660;2022-10-22T05:10:10;3.40;;;2.10;;
8982;SDS011;20979;59.850;10.660;2022-10-22T05:12:39;11.60;;;8.13;;
8982;SDS011;20979;59.850;10.660;2022-10-22T05:15:06;3.90;;;2.40;;
8982;SDS011;20979;59.850;10.660;2022-10-22T05:17:34;2.43;;;2.23;;
8982;SDS011;20979;59.850;10.660;2022-10-22T05:20:02;2.90;;;2.47;;
8982;SDS011;20979;59.850;10.660;2022-10-22T05:22:29;2.63;;;2.43;;
8982;SDS011;20979;59.850;10.660;2022-10-22T05:24:57;2.43;;;2.23;;
8982;SDS011;20979;59.850;10.660;2022-10-22T05:27:24;2.50;;;2.30;;
8982;SDS011;20979;59.850;10.660;2022-10-22T05:29:52;4.90;;;2.43;;
8982;SDS011;20979;59.850;10.660;2022-10-22T05:32:20;4.40;;;2.20;;
8982;SDS011;20979;59.850;10.660;2022-10-22T05:34:47;2.30;;;2.10;;
8982;SDS011;20979;59.850;10.660;2022-10-22T05:37:14;2.40;;;2.20;;
8982;SDS011;20979;59.850;10.660;2022-10-22T05:39:41;2.77;;;2.43;;
8982;SDS011;20979;59.850;10.660;2022-10-22T05:42:08;2.37;;;2.17;;
8982;SDS011;20979;59.850;10.660;2022-10-22T05:44:36;2.83;;;2.30;;
8982;SDS011;20979;59.850;10.660;2022-10-22T05:47:06;2.87;;;2.40;;
8982;SDS011;20979;59.850;10.660;2022-10-22T05:49:34;2.30;;;2.10;;
8982;SDS011;20979;59.850;10.660;2022-10-22T05:52:01;2.60;;;2.40;;
8982;SDS011;20979;59.850;10.660;2022-10-22T05:54:28;2.30;;;2.20;;
8982;SDS011;20979;59.850;10.660;2022-10-22T05:56:55;2.27;;;2.17;;
8982;SDS011;20979;59.850;10.660;2022-10-22T05:59:22;2.23;;;2.00;;
8982;SDS011;20979;59.850;10.660;2022-10-22T06:01:50;2.50;;;2.30;;
8982;SDS011;20979;59.850;10.660;2022-10-22T06:04:18;5.07;;;2.20;;
8982;SDS011;20979;59.850;10.660;2022-10-22T06:06:46;2.70;;;2.07;;
8982;SDS011;20979;59.850;10.660;2022-10-22T06:09:14;2.40;;;2.20;;
8982;SDS011;20979;59.850;10.660;2022-10-22T06:11:43;2.37;;;2.17;;
8982;SDS011;20979;59.850;10.660;2022-10-22T06:14:10;2.33;;;2.13;;
8982;SDS011;20979;59.850;10.660;2022-10-22T06:16:38;2.40;;;2.20;;
8982;SDS011;20979;59.850;10.660;2022-10-22T06:19:08;2.27;;;2.17;;
8982;SDS011;20979;59.850;10.660;2022-10-22T06:21:37;2.40;;;2.20;;
8982;SDS011;20979;59.850;10.660;2022-10-22T06:24:04;3.37;;;2.40;;
8982;SDS011;20979;59.850;10.660;2022-10-22T06:26:32;4.17;;;3.63;;
8982;SDS011;20979;59.850;10.660;2022-10-22T06:28:59;3.80;;;3.50;;
8982;SDS011;20979;59.850;10.660;2022-10-22T06:31:27;4.40;;;4.00;;
8982;SDS011;20979;59.850;10.660;2022-10-22T06:34:02;4.30;;;3.60;;
8982;SDS011;20979;59.850;10.660;2022-10-22T06:36:29;2.70;;;2.50;;
8982;SDS011;20979;59.850;10.660;2022-10-22T06:38:58;4.27;;;3.40;;
8982;SDS011;20979;59.850;10.660;2022-10-22T06:41:25;8.10;;;6.00;;
8982;SDS011;20979;59.850;10.660;2022-10-22T06:43:53;6.53;;;5.20;;
8982;SDS011;20979;59.850;10.660;2022-10-22T06:46:21;4.80;;;4.20;;
8982;SDS011;20979;59.850;10.660;2022-10-22T06:48:49;3.07;;;2.60;;
8982;SDS011;20979;59.850;10.660;2022-10-22T06:51:17;3.67;;;2.57;;
8982;SDS011;20979;59.850;10.660;2022-10-22T06:53:45;4.20;;;3.20;;
8982;SDS011;20979;59.850;10.660;2022-10-22T06:56:15;4.03;;;3.00;;
8982;SDS011;20979;59.850;10.660;2022-10-22T06:58:46;3.40;;;3.10;;
8982;SDS011;20979;59.850;10.660;2022-10-22T07:01:13;3.00;;;2.70;;
8982;SDS011;20979;59.850;10.660;2022-10-22T07:03:41;3.00;;;2.80;;
8982;SDS011;20979;59.850;10.660;2022-10-22T07:06:09;4.40;;;3.13;;
8982;SDS011;20979;59.850;10.660;2022-10-22T07:08:36;6.70;;;4.00;;
8982;SDS011;20979;59.850;10.660;2022-10-22T07:11:16;6.63;;;5.20;;
8982;SDS011;20979;59.850;10.660;2022-10-22T07:13:44;9.00;;;6.40;;
8982;SDS011;20979;59.850;10.660;2022-10-22T07:16:12;11.77;;;8.37;;
8982;SDS011;20979;59.850;10.660;2022-10-22T07:18:40;28.63;;;18.90;;
8982;SDS011;20979;59.850;10.660;2022-10-22T07:21:10;16.37;;;8.73;;
8982;SDS011;20979;59.850;10.660;2022-10-22T07:23:37;6.00;;;4.30;;
8982;SDS011;20979;59.850;10.660;2022-10-22T07:26:05;8.27;;;5.17;;
8982;SDS011;20979;59.850;10.660;2022-10-22T07:28:34;7.67;;;5.80;;
8982;SDS011;20979;59.850;10.660;2022-10-22T07:31:02;9.43;;;6.93;;
8982;SDS011;20979;59.850;10.660;2022-10-22T07:33:29;9.03;;;7.43;;
8982;SDS011;20979;59.850;10.660;2022-10-22T07:35:57;7.07;;;5.63;;
8982;SDS011;20979;59.850;10.660;2022-10-22T07:38:25;5.97;;;5.07;;
8982;SDS011;20979;59.850;10.660;2022-10-22T07:40:52;4.60;;;4.03;;
8982;SDS011;20979;59.850;10.660;2022-10-22T07:43:20;6.00;;;5.17;;
8982;SDS011;20979;59.850;10.660;2022-10-22T07:45:48;6.27;;;3.97;;
8982;SDS011;20979;59.850;10.660;2022-10-22T07:48:16;5.90;;;4.03;;
8982;SDS011;20979;59.850;10.660;2022-10-22T07:50:43;7.57;;;5.67;;
8982;SDS011;20979;59.850;10.660;2022-10-22T07:53:15;8.60;;;5.30;;
8982;SDS011;20979;59.850;10.660;2022-10-22T07:55:51;7.13;;;5.50;;
8982;SDS011;20979;59.850;10.660;2022-10-22T07:58:19;8.03;;;5.87;;
8982;SDS011;20979;59.850;10.660;2022-10-22T08:00:47;7.30;;;6.17;;
8982;SDS011;20979;59.850;10.660;2022-10-22T08:03:16;7.67;;;5.60;;
8982;SDS011;20979;59.850;10.660;2022-10-22T08:05:45;7.37;;;4.70;;
8982;SDS011;20979;59.850;10.660;2022-10-22T08:08:13;5.00;;;4.13;;
8982;SDS011;20979;59.850;10.660;2022-10-22T08:10:41;7.53;;;4.40;;
8982;SDS011;20979;59.850;10.660;2022-10-22T08:13:08;7.20;;;4.70;;
8982;SDS011;20979;59.850;10.660;2022-10-22T08:15:36;5.37;;;4.50;;
8982;SDS011;20979;59.850;10.660;2022-10-22T08:18:10;6.37;;;4.80;;
8982;SDS011;20979;59.850;10.660;2022-10-22T08:20:39;6.50;;;4.60;;
8982;SDS011;20979;59.850;10.660;2022-10-22T08:23:06;4.57;;;4.17;;
8982;SDS011;20979;59.850;10.660;2022-10-22T08:25:34;5.07;;;4.30;;
8982;SDS011;20979;59.850;10.660;2022-10-22T08:28:01;5.43;;;4.33;;
8982;SDS011;20979;59.850;10.660;2022-10-22T08:30:28;10.63;;;9.37;;
8982;SDS011;20979;59.850;10.660;2022-10-22T08:33:02;5.67;;;5.00;;
8982;SDS011;20979;59.850;10.660;2022-10-22T08:35:29;5.60;;;4.27;;
8982;SDS011;20979;59.850;10.660;2022-10-22T08:38:11;5.07;;;4.50;;
8982;SDS011;20979;59.850;10.660;2022-10-22T08:40:39;5.60;;;4.13;;
8982;SDS011;20979;59.850;10.660;2022-10-22T08:43:18;3.97;;;3.57;;
8982;SDS011;20979;59.850;10.660;2022-10-22T08:45:52;4.57;;;3.80;;
8982;SDS011;20979;59.850;10.660;2022-10-22T08:48:40;3.97;;;3.60;;
8982;SDS011;20979;59.850;10.660;2022-10-22T08:51:10;3.50;;;3.20;;
8982;SDS011;20979;59.850;10.660;2022-10-22T08:53:40;3.93;;;3.53;;
8982;SDS011;20979;59.850;10.660;2022-10-22T08:56:09;3.60;;;3.30;;
8982;SDS011;20979;59.850;10.660;2022-10-22T08:58:52;3.30;;;3.00;;
8982;SDS011;20979;59.850;10.660;2022-10-22T09:01:28;3.30;;;3.00;;
8982;SDS011;20979;59.850;10.660;2022-10-22T09:07:17;3.73;;;2.93;;
8982;SDS011;20979;59.850;10.660;2022-10-22T09:09:46;3.30;;;3.00;;
8982;SDS011;20979;59.850;10.660;2022-10-22T09:12:30;3.50;;;3.20;;
8982;SDS011;20979;59.850;10.660;2022-10-22T09:15:29;3.90;;;3.60;;
8982;SDS011;20979;59.850;10.660;2022-10-22T09:17:59;4.50;;;3.03;;
8982;SDS011;20979;59.850;10.660;2022-10-22T09:20:31;4.53;;;3.57;;
8982;SDS011;20979;59.850;10.660;2022-10-22T09:23:04;4.10;;;3.70;;
8982;SDS011;20979;59.850;10.660;2022-10-22T09:25:38;4.07;;;3.70;;
8982;SDS011;20979;59.850;10.660;2022-10-22T09:30:44;5.43;;;4.00;;
8982;SDS011;20979;59.850;10.660;2022-10-22T09:33:13;5.20;;;4.53;;
8982;SDS011;20979;59.850;10.660;2022-10-22T09:35:44;4.40;;;4.00;;
8982;SDS011;20979;59.850;10.660;2022-10-22T09:41:08;5.60;;;4.17;;
8982;SDS011;20979;59.850;10.660;2022-10-22T09:43:45;5.67;;;4.40;;
8982;SDS011;20979;59.850;10.660;2022-10-22T09:46:18;4.87;;;3.60;;
8982;SDS011;20979;59.850;10.660;2022-10-22T09:48:46;3.63;;;3.33;;
8982;SDS011;20979;59.850;10.660;2022-10-22T09:51:18;4.60;;;4.20;;
8982;SDS011;20979;59.850;10.660;2022-10-22T09:53:46;4.00;;;3.40;;
8982;SDS011;20979;59.850;10.660;2022-10-22T10:02:56;4.10;;;3.10;;
8982;SDS011;20979;59.850;10.660;2022-10-22T10:05:25;4.63;;;3.63;;
8982;SDS011;20979;59.850;10.660;2022-10-22T10:07:55;5.37;;;3.70;;
8982;SDS011;20979;59.850;10.660;2022-10-22T10:10:31;5.53;;;4.90;;
8982;SDS011;20979;59.850;10.660;2022-10-22T10:40:17;3.73;;;3.43;;
8982;SDS011;20979;59.850;10.660;2022-10-22T10:43:18;9.70;;;6.90;;
8982;SDS011;20979;59.850;10.660;2022-10-22T10:45:50;4.37;;;3.83;;
8982;SDS011;20979;59.850;10.660;2022-10-22T10:51:33;3.57;;;3.27;;
8982;SDS011;20979;59.850;10.660;2022-10-22T10:54:06;4.23;;;3.83;;
8982;SDS011;20979;59.850;10.660;2022-10-22T10:56:43;5.47;;;3.70;;
8982;SDS011;20979;59.850;10.660;2022-10-22T10:59:13;5.07;;;3.57;;
8982;SDS011;20979;59.850;10.660;2022-10-22T11:01:48;4.10;;;3.70;;
8982;SDS011;20979;59.850;10.660;2022-10-22T11:04:23;4.23;;;3.37;;
8982;SDS011;20979;59.850;10.660;2022-10-22T11:06:56;4.00;;;3.60;;
8982;SDS011;20979;59.850;10.660;2022-10-22T11:09:26;4.40;;;3.93;;
8982;SDS011;20979;59.850;10.660;2022-10-22T11:30:50;5.17;;;4.50;;
8982;SDS011;20979;59.850;10.660;2022-10-22T11:33:20;5.93;;;3.90;;
8982;SDS011;20979;59.850;10.660;2022-10-22T11:35:50;4.63;;;3.60;;
8982;SDS011;20979;59.850;10.660;2022-10-22T11:38:24;4.33;;;3.83;;
8982;SDS011;20979;59.850;10.660;2022-10-22T11:41:07;6.37;;;4.17;;
8982;SDS011;20979;59.850;10.660;2022-10-22T11:43:51;5.17;;;4.00;;
8982;SDS011;20979;59.850;10.660;2022-10-22T11:46:33;5.17;;;3.57;;
8982;SDS011;20979;59.850;10.660;2022-10-22T11:49:15;3.93;;;3.40;;
8982;SDS011;20979;59.850;10.660;2022-10-22T11:51:43;3.70;;;3.30;;
8982;SDS011;20979;59.850;10.660;2022-10-22T11:57:24;3.83;;;3.20;;
8982;SDS011;20979;59.850;10.660;2022-10-22T11:59:55;3.57;;;3.10;;
8982;SDS011;20979;59.850;10.660;2022-10-22T12:02:36;3.90;;;3.50;;
8982;SDS011;20979;59.850;10.660;2022-10-22T12:11:14;2.80;;;2.60;;
8982;SDS011;20979;59.850;10.660;2022-10-22T12:13:57;3.20;;;2.90;;
8982;SDS011;20979;59.850;10.660;2022-10-22T12:16:28;5.63;;;5.03;;
8982;SDS011;20979;59.850;10.660;2022-10-22T12:19:03;4.20;;;3.10;;
8982;SDS011;20979;59.850;10.660;2022-10-22T12:22:10;3.37;;;3.07;;
8982;SDS011;20979;59.850;10.660;2022-10-22T12:24:39;3.23;;;2.73;;
8982;SDS011;20979;59.850;10.660;2022-10-22T12:27:17;4.20;;;2.87;;
8982;SDS011;20979;59.850;10.660;2022-10-22T12:29:56;3.30;;;3.00;;
8982;SDS011;20979;59.850;10.660;2022-10-22T12:32:28;4.90;;;4.23;;
8982;SDS011;20979;59.850;10.660;2022-10-22T12:38:25;7.03;;;5.10;;
8982;SDS011;20979;59.850;10.660;2022-10-22T12:40:55;5.77;;;3.60;;
8982;SDS011;20979;59.850;10.660;2022-10-22T12:43:23;3.33;;;3.00;;
8982;SDS011;20979;59.850;10.660;2022-10-22T12:45:51;4.77;;;3.50;;
8982;SDS011;20979;59.850;10.660;2022-10-22T12:48:20;3.93;;;3.63;;
8982;SDS011;20979;59.850;10.660;2022-10-22T12:51:29;4.70;;;4.30;;
8982;SDS011;20979;59.850;10.660;2022-10-22T12:53:45;4.77;;;4.33;;
8982;SDS011;20979;59.850;10.660;2022-10-22T12:56:17;4.90;;;4.40;;
8982;SDS011;20979;59.850;10.660;2022-10-22T12:58:47;5.60;;;4.17;;
8982;SDS011;20979;59.850;10.660;2022-10-22T13:01:16;4.80;;;4.40;;
8982;SDS011;20979;59.850;10.660;2022-10-22T13:24:35;2.90;;;2.70;;
8982;SDS011;20979;59.850;10.660;2022-10-22T13:27:15;3.33;;;2.80;;
8982;SDS011;20979;59.850;10.660;2022-10-22T13:29:42;3.67;;;3.00;;
8982;SDS011;20979;59.850;10.660;2022-10-22T13:32:17;3.70;;;3.27;;
8982;SDS011;20979;59.850;10.660;2022-10-22T13:34:47;3.73;;;3.30;;
8982;SDS011;20979;59.850;10.660;2022-10-22T13:37:17;4.53;;;3.20;;
8982;SDS011;20979;59.850;10.660;2022-10-22T13:39:46;3.50;;;2.90;;
8982;SDS011;20979;59.850;10.660;2022-10-22T13:42:13;3.40;;;3.10;;
8982;SDS011;20979;59.850;10.660;2022-10-22T13:47:36;4.03;;;3.40;;
8982;SDS011;20979;59.850;10.660;2022-10-22T13:50:21;6.03;;;3.57;;
8982;SDS011;20979;59.850;10.660;2022-10-22T13:59:08;3.93;;;3.03;;
8982;SDS011;20979;59.850;10.660;2022-10-22T14:01:36;4.53;;;3.37;;
8982;SDS011;20979;59.850;10.660;2022-10-22T14:04:18;3.73;;;3.33;;
8982;SDS011;20979;59.850;10.660;2022-10-22T14:06:45;5.63;;;4.17;;
8982;SDS011;20979;59.850;10.660;2022-10-22T14:09:13;5.03;;;4.47;;
8982;SDS011;20979;59.850;10.660;2022-10-22T14:14:32;6.47;;;4.30;;
8982;SDS011;20979;59.850;10.660;2022-10-22T14:17:00;4.43;;;4.00;;
8982;SDS011;20979;59.850;10.660;2022-10-22T14:19:28;5.03;;;4.13;;
8982;SDS011;20979;59.850;10.660;2022-10-22T14:21:56;3.93;;;3.20;;
8982;SDS011;20979;59.850;10.660;2022-10-22T14:24:24;3.67;;;3.07;;
8982;SDS011;20979;59.850;10.660;2022-10-22T14:26:54;4.47;;;3.33;;
8982;SDS011;20979;59.850;10.660;2022-10-22T14:29:37;4.17;;;3.60;;
8982;SDS011;20979;59.850;10.660;2022-10-22T14:32:08;4.27;;;3.57;;
8982;SDS011;20979;59.850;10.660;2022-10-22T14:35:03;5.20;;;3.50;;
8982;SDS011;20979;59.850;10.660;2022-10-22T14:37:32;4.13;;;3.73;;
8982;SDS011;20979;59.850;10.660;2022-10-22T14:39:59;4.00;;;3.63;;
8982;SDS011;20979;59.850;10.660;2022-10-22T14:42:36;3.93;;;3.30;;
8982;SDS011;20979;59.850;10.660;2022-10-22T14:45:21;4.00;;;3.50;;
8982;SDS011;20979;59.850;10.660;2022-10-22T14:50:44;4.60;;;3.43;;
8982;SDS011;20979;59.850;10.660;2022-10-22T14:53:12;4.30;;;3.80;;
8982;SDS011;20979;59.850;10.660;2022-10-22T14:55:57;8.23;;;3.80;;
8982;SDS011;20979;59.850;10.660;2022-10-22T14:58:25;5.50;;;3.27;;
8982;SDS011;20979;59.850;10.660;2022-10-22T15:00:56;4.77;;;3.60;;
8982;SDS011;20979;59.850;10.660;2022-10-22T15:09:17;4.80;;;3.57;;
8982;SDS011;20979;59.850;10.660;2022-10-22T15:12:09;5.83;;;4.10;;
8982;SDS011;20979;59.850;10.660;2022-10-22T15:14:58;7.33;;;5.30;;
8982;SDS011;20979;59.850;10.660;2022-10-22T15:17:26;5.97;;;4.67;;
8982;SDS011;20979;59.850;10.660;2022-10-22T15:19:57;5.87;;;4.67;;
8982;SDS011;20979;59.850;10.660;2022-10-22T15:22:29;9.23;;;5.57;;
8982;SDS011;20979;59.850;10.660;2022-10-22T15:24:59;6.03;;;4.90;;
8982;SDS011;20979;59.850;10.660;2022-10-22T15:30:09;6.67;;;5.00;;
8982;SDS011;20979;59.850;10.660;2022-10-22T15:38:33;15.67;;;13.10;;
8982;SDS011;20979;59.850;10.660;2022-10-22T15:41:01;17.43;;;13.00;;
8982;SDS011;20979;59.850;10.660;2022-10-22T15:43:28;18.37;;;10.47;;
8982;SDS011;20979;59.850;10.660;2022-10-22T15:46:03;12.73;;;9.07;;
8982;SDS011;20979;59.850;10.660;2022-10-22T15:48:34;11.93;;;8.07;;
8982;SDS011;20979;59.850;10.660;2022-10-22T15:51:18;11.47;;;7.30;;
8982;SDS011;20979;59.850;10.660;2022-10-22T15:53:49;9.97;;;6.17;;
8982;SDS011;20979;59.850;10.660;2022-10-22T15:56:17;14.07;;;7.07;;
8982;SDS011;20979;59.850;10.660;2022-10-22T15:58:53;8.13;;;6.63;;
8982;SDS011;20979;59.850;10.660;2022-10-22T16:01:21;5.93;;;5.33;;
8982;SDS011;20979;59.850;10.660;2022-10-22T16:03:49;4.87;;;4.37;;
8982;SDS011;20979;59.850;10.660;2022-10-22T16:06:24;5.87;;;4.60;;
8982;SDS011;20979;59.850;10.660;2022-10-22T16:08:53;9.53;;;4.20;;
8982;SDS011;20979;59.850;10.660;2022-10-22T16:11:20;4.57;;;3.77;;
8982;SDS011;20979;59.850;10.660;2022-10-22T16:13:47;7.50;;;3.73;;
8982;SDS011;20979;59.850;10.660;2022-10-22T16:16:18;6.73;;;3.90;;
8982;SDS011;20979;59.850;10.660;2022-10-22T16:18:45;6.07;;;4.10;;
8982;SDS011;20979;59.850;10.660;2022-10-22T16:21:13;6.80;;;3.70;;
8982;SDS011;20979;59.850;10.660;2022-10-22T16:23:40;6.77;;;3.60;;
8982;SDS011;20979;59.850;10.660;2022-10-22T16:26:12;5.40;;;3.67;;
8982;SDS011;20979;59.850;10.660;2022-10-22T16:28:39;8.17;;;4.00;;
8982;SDS011;20979;59.850;10.660;2022-10-22T16:31:07;7.87;;;4.60;;
8982;SDS011;20979;59.850;10.660;2022-10-22T16:33:35;5.83;;;3.90;;
8982;SDS011;20979;59.850;10.660;2022-10-22T16:36:03;7.00;;;3.87;;
8982;SDS011;20979;59.850;10.660;2022-10-22T16:38:30;4.27;;;3.70;;
8982;SDS011;20979;59.850;10.660;2022-10-22T16:41:05;5.33;;;4.37;;
8982;SDS011;20979;59.850;10.660;2022-10-22T16:43:34;6.97;;;4.33;;
8982;SDS011;20979;59.850;10.660;2022-10-22T16:46:01;4.33;;;3.87;;
8982;SDS011;20979;59.850;10.660;2022-10-22T16:48:28;5.80;;;4.00;;
8982;SDS011;20979;59.850;10.660;2022-10-22T16:50:56;6.33;;;4.40;;
8982;SDS011;20979;59.850;10.660;2022-10-22T16:53:23;6.50;;;4.60;;
8982;SDS011;20979;59.850;10.660;2022-10-22T16:55:50;4.63;;;4.00;;
8982;SDS011;20979;59.850;10.660;2022-10-22T16:58:18;4.93;;;4.37;;
8982;SDS011;20979;59.850;10.660;2022-10-22T17:00:47;5.20;;;4.30;;
8982;SDS011;20979;59.850;10.660;2022-10-22T17:03:14;5.47;;;4.23;;
8982;SDS011;20979;59.850;10.660;2022-10-22T17:05:41;7.53;;;4.73;;
8982;SDS011;20979;59.850;10.660;2022-10-22T17:08:08;5.87;;;4.17;;
8982;SDS011;20979;59.850;10.660;2022-10-22T17:10:36;5.07;;;4.57;;
8982;SDS011;20979;59.850;10.660;2022-10-22T17:13:04;5.10;;;4.47;;
8982;SDS011;20979;59.850;10.660;2022-10-22T17:15:31;6.83;;;4.37;;
8982;SDS011;20979;59.850;10.660;2022-10-22T17:18:00;7.27;;;4.60;;